»·PEaware :: QXE2074 KSEA-KGPI

QXE2074 :: KSEA-KGPI

FLIGHT INFORMATION

Flight Status: Arrived
Operator:
Horizon Air
More flights by this operator :: More flights under this callsign
Pilot: Henderson P. (1210)
Aircraft: DEHAVILLAND DASH 8 400
(DH8D)
More flights by this aircraft type
Origin: KSEA Seattle-Tacoma Intl
United States
Destination: KGPI Glacier Park Intl
United States
More flights between these airports :: More routes between these airports
Route: ZADON ZELAK ZIRAN ZOOMR
File this flight plan on PilotEdge
Remarks:
Altitude:
(Current/Filed)
25,000ft
Speed:
(Current/Filed)
319kts
Departed: 25-Oct-18 12:11 PM
Arrived: 25-Oct-18 01:15 PM
Distance/Time
Traveled:
328nm/1:04
Distance/Time
To Go:
Arrived

Flight Plot

Page will automatically refresh every two minutes.

Flight plan parsing failed; only flown route is shown


Map Options




Map Legend


Flown Route
Filed Route
Departure Airport
Arrival Airport
Navaid (VOR, NDB)
Fix

Horizontal Profiles

Position Reports

Time Latitude Longitude Heading Altitude Ground
Speed
25-Oct-18 11:21 47.445384 -122.304763 90 440ft 0kts
25-Oct-18 11:22 47.445384 -122.304763 90 440ft 0kts
25-Oct-18 11:23 47.445384 -122.304763 90 440ft 0kts
25-Oct-18 11:24 47.445384 -122.304763 90 440ft 0kts
25-Oct-18 11:25 47.445384 -122.304763 90 440ft 0kts
25-Oct-18 11:26 47.445384 -122.304763 90 440ft 0kts
25-Oct-18 11:27 47.445384 -122.304763 90 440ft 0kts
25-Oct-18 11:28 47.445384 -122.304763 90 440ft 0kts
25-Oct-18 11:29 47.445384 -122.304763 90 440ft 0kts
25-Oct-18 11:30 47.445384 -122.304763 90 440ft 0kts
25-Oct-18 11:31 47.445384 -122.304763 90 440ft 0kts
25-Oct-18 11:32 47.445384 -122.304763 90 440ft 0kts
25-Oct-18 11:33 47.445384 -122.304763 90 440ft 0kts
25-Oct-18 11:34 47.445384 -122.304763 90 440ft 0kts
25-Oct-18 11:35 47.445384 -122.304763 90 440ft 0kts
25-Oct-18 11:36 47.445384 -122.304763 90 440ft 0kts
25-Oct-18 11:37 47.445384 -122.304763 90 440ft 0kts
25-Oct-18 11:38 47.445384 -122.304763 90 440ft 0kts
25-Oct-18 11:39 47.445384 -122.304763 90 440ft 0kts
25-Oct-18 11:40 47.445384 -122.304763 90 440ft 0kts
25-Oct-18 11:41 47.445384 -122.304763 90 440ft 0kts
25-Oct-18 11:42 47.445384 -122.304763 90 440ft 0kts
25-Oct-18 11:43 47.445384 -122.304763 90 440ft 0kts
25-Oct-18 11:44 47.445384 -122.304763 90 440ft 0kts
25-Oct-18 11:45 47.445384 -122.304763 90 440ft 0kts
25-Oct-18 11:46 47.445384 -122.304763 90 440ft 0kts
25-Oct-18 11:47 47.445384 -122.304763 90 440ft 0kts
25-Oct-18 11:48 47.445384 -122.304763 90 440ft 0kts
25-Oct-18 11:49 47.445384 -122.304763 90 440ft 0kts
25-Oct-18 11:50 47.445384 -122.304763 90 440ft 0kts
25-Oct-18 11:51 47.445384 -122.304763 90 440ft 0kts
25-Oct-18 11:52 47.445384 -122.304763 90 440ft 0kts
25-Oct-18 11:53 47.445384 -122.304763 90 440ft 0kts
25-Oct-18 11:54 47.445384 -122.304763 90 440ft 0kts
25-Oct-18 11:55 47.445384 -122.304763 90 440ft 0kts
25-Oct-18 11:56 47.445384 -122.304763 90 440ft 0kts
25-Oct-18 11:57 47.445384 -122.304763 90 440ft 0kts
25-Oct-18 11:58 47.445384 -122.304763 90 440ft 0kts
25-Oct-18 11:59 47.445384 -122.304763 90 440ft 0kts
25-Oct-18 12:00 47.445181 -122.305416 7 440ft 2kts
25-Oct-18 12:01 47.445039 -122.305424 0 440ft 0kts
25-Oct-18 12:02 47.445039 -122.305424 0 440ft 0kts
25-Oct-18 12:03 47.445950 -122.306269 341 441ft 11kts
25-Oct-18 12:04 47.450979 -122.306265 0 441ft 22kts
25-Oct-18 12:05 47.455634 -122.306221 0 441ft 13kts
25-Oct-18 12:06 47.458748 -122.306189 0 441ft 11kts
25-Oct-18 12:07 47.462108 -122.306159 358 441ft 11kts
25-Oct-18 12:08 47.463670 -122.307520 266 441ft 8kts
25-Oct-18 12:09 47.463674 -122.309588 270 440ft 0kts
25-Oct-18 12:10 47.463674 -122.309588 270 440ft 0kts
25-Oct-18 12:11 47.463674 -122.309588 270 440ft 0kts
25-Oct-18 12:12 47.463679 -122.310189 269 441ft 9kts
25-Oct-18 12:13 47.443920 -122.311228 182 960ft 136kts
25-Oct-18 12:14 47.404289 -122.306763 167 3658ft 153kts
25-Oct-18 12:15 47.356127 -122.299273 150 5859ft 215kts
25-Oct-18 12:16 47.359514 -122.206753 60 8220ft 277kts
25-Oct-18 12:17 47.400860 -122.109860 58 10429ft 286kts
25-Oct-18 12:18 47.444095 -122.009515 57 11963ft 294kts
25-Oct-18 12:19 47.487759 -121.908376 56 13351ft 299kts
25-Oct-18 12:20 47.532421 -121.805972 55 14544ft 307kts
25-Oct-18 12:21 47.562795 -121.697105 89 15614ft 311kts
25-Oct-18 12:22 47.560064 -121.567884 94 16633ft 317kts
25-Oct-18 12:23 47.557926 -121.435862 92 17637ft 321kts
25-Oct-18 12:24 47.556083 -121.302256 93 18644ft 323kts
25-Oct-18 12:25 47.553833 -121.168668 92 19641ft 323kts
25-Oct-18 12:26 47.551484 -121.036171 91 20631ft 322kts
25-Oct-18 12:27 47.549066 -120.903621 91 21623ft 320kts
25-Oct-18 12:28 47.546410 -120.772174 90 22609ft 317kts
25-Oct-18 12:29 47.543698 -120.642170 90 23592ft 312kts
25-Oct-18 12:30 47.540850 -120.513097 89 24411ft 315kts
25-Oct-18 12:31 47.542271 -120.381252 76 24917ft 325kts
25-Oct-18 12:32 47.540355 -120.242466 93 25129ft 354kts
25-Oct-18 12:33 47.532559 -120.091401 93 25134ft 381kts
25-Oct-18 12:34 47.524001 -119.930790 93 25135ft 398kts
25-Oct-18 12:35 47.514969 -119.766779 93 25141ft 408kts
25-Oct-18 12:36 47.505520 -119.599069 93 25147ft 413kts
25-Oct-18 12:37 47.495788 -119.430042 93 25156ft 416kts
25-Oct-18 12:38 47.485682 -119.259268 93 25160ft 417kts
25-Oct-18 12:39 47.475472 -119.092357 93 25165ft 417kts
25-Oct-18 12:40 47.465338 -118.929516 93 25165ft 417kts
25-Oct-18 12:41 47.455082 -118.767523 92 25166ft 416kts
25-Oct-18 12:42 47.444750 -118.605681 92 25167ft 415kts
25-Oct-18 12:43 47.434267 -118.442963 92 25170ft 414kts
25-Oct-18 12:44 47.430233 -118.280365 71 25172ft 402kts
25-Oct-18 12:45 47.467990 -118.133462 61 25181ft 394kts
25-Oct-18 12:46 47.502903 -117.985140 64 25183ft 395kts
25-Oct-18 12:47 47.536849 -117.838094 63 25184ft 393kts
25-Oct-18 12:48 47.571249 -117.691567 63 25183ft 392kts
25-Oct-18 12:49 47.604369 -117.548907 63 25187ft 391kts
25-Oct-18 12:51 47.643138 -117.381193 63 25193ft 390kts
25-Oct-18 12:51 47.670921 -117.260133 63 25193ft 390kts
25-Oct-18 12:52 47.703847 -117.115418 63 25194ft 390kts
25-Oct-18 12:53 47.736782 -116.970199 64 25198ft 389kts
25-Oct-18 12:54 47.769667 -116.824043 64 25201ft 388kts
25-Oct-18 12:55 47.802294 -116.677800 64 25202ft 387kts
25-Oct-18 12:56 47.835152 -116.529741 64 25202ft 386kts
25-Oct-18 12:57 47.867638 -116.382210 64 25203ft 385kts
25-Oct-18 12:58 47.899848 -116.234856 64 25205ft 384kts
25-Oct-18 12:59 47.932275 -116.085538 65 24588ft 392kts
25-Oct-18 13:00 47.965129 -115.935344 66 22816ft 393kts
25-Oct-18 13:01 47.997228 -115.783844 67 21037ft 390kts
25-Oct-18 13:02 48.029268 -115.633308 67 19413ft 391kts
25-Oct-18 13:03 48.061003 -115.481922 67 19213ft 391kts
25-Oct-18 13:04 48.091715 -115.334170 67 19204ft 387kts
25-Oct-18 13:05 48.122272 -115.187064 67 19201ft 385kts
25-Oct-18 13:06 48.152713 -115.039264 68 18856ft 387kts
25-Oct-18 13:07 48.183413 -114.890264 68 16933ft 383kts
25-Oct-18 13:08 48.211543 -114.750106 72 14997ft 347kts
25-Oct-18 13:09 48.196199 -114.620223 104 13200ft 323kts
25-Oct-18 13:10 48.174696 -114.504909 104 11577ft 296kts
25-Oct-18 13:11 48.159095 -114.395678 79 9836ft 276kts
25-Oct-18 13:12 48.205885 -114.353399 332 8446ft 209kts
25-Oct-18 13:13 48.248051 -114.377590 27 7271ft 152kts
25-Oct-18 13:14 48.248672 -114.327850 81 5273ft 136kts
25-Oct-18 13:15 48.274772 -114.292695 37 3601ft 138kts
25-Oct-18 13:16 48.303657 -114.262605 38 2978ft 124kts
25-Oct-18 13:17 48.311969 -114.252749 90 2977ft 7kts
25-Oct-18 13:18 48.309813 -114.253136 177 2977ft 12kts
25-Oct-18 13:19 48.308486 -114.252885 124 2977ft 3kts
25-Oct-18 13:20 48.308437 -114.252780 125 2976ft 0kts
25-Oct-18 13:21 48.308437 -114.252780 125 2976ft 0kts
25-Oct-18 13:22 48.308437 -114.252780 125 2976ft 0kts
25-Oct-18 13:23 48.308437 -114.252780 125 2976ft 0kts
25-Oct-18 13:24 48.308437 -114.252780 125 2976ft 0kts
25-Oct-18 13:25 48.308437 -114.252780 125 2976ft 0kts
25-Oct-18 13:26 48.308437 -114.252780 125 2976ft 0kts
25-Oct-18 13:27 48.308437 -114.252779 125 2976ft 0kts
25-Oct-18 13:28 48.308437 -114.252779 125 2976ft 0kts
25-Oct-18 13:29 48.308437 -114.252779 125 2976ft 0kts
25-Oct-18 13:30 48.308437 -114.252779 125 2976ft 0kts

Navigation Log

Ident Type
Flight plan parsing failed, navigation log unavailable